Ewtrford, Pennsylvania
Current Conditions -  °F | °C
As of 2:53 PM on Thursday 30 Oct 2014 (Local Time) from KAOO Reporting Station
Overcast Overcast  
Wind Chill: 43°   Ceiling: 4000
Heat Index: 48°   Visibility: 10mi
Dew Point: 35°   Wind: 10mph
Humidity: 61%   Direction: 310°NW
Pressure: 30.03"   Gusts: NA
Location:  40.3617°N, 77.6745°W
Report Text: KAOO 301853Z AUTO 31009KT 10SM OVC040 09/02 A3003 RMK AO2 SLP176 T00890017
Loading
Personal Weather Stations






























Interactive Weather Map
Tropical Storm Tracking
New forecast layout! Learn more

10-Day Weather Forecast

Advertisements
Track Severe Weather on mobile